Palma de Mallorca Aeropuerto en Baleares

latitud = 39° 33' 39''N | longitud = 002° 44' 12''E
8 metros sobre el nivel del mar |

Fecha, hora, temperatura, viento dirección y velocidad, humedad y presión.

  • 24-02-2018 07:00:00 | -0.70°C | Calma |0.00 km/h | 97.00% | 1007.50 hPa
  • 24-02-2018 06:00:00 | -0.40°C | Calma |0.00 km/h | 97.00% | 1007.20 hPa
  • 24-02-2018 05:00:00 | -0.50°C | Calma |0.00 km/h | 97.00% | 1007.20 hPa
  • 24-02-2018 04:00:00 | 0.20°C | Norte |2.00 km/h | 97.00% | 1007.40 hPa
  • 24-02-2018 03:00:00 | 0.30°C | Norte |2.00 km/h | 97.00% | 1007.80 hPa
  • 24-02-2018 02:00:00 | 0.50°C | Calma |0.00 km/h | 96.00% | 1007.70 hPa
  • 24-02-2018 01:00:00 | 1.20°C | Norte |3.00 km/h | 95.00% | 1007.70 hPa
  • 24-02-2018 00:00:00 | 2.40°C | Calma |0.00 km/h | 95.00% | 1007.80 hPa
  • 23-02-2018 23:00:00 | 3.00°C | Norte |5.00 km/h | 94.00% | 1007.60 hPa
  • 23-02-2018 22:00:00 | 4.10°C | Norte |5.00 km/h | 92.00% | 1007.80 hPa
  • 23-02-2018 21:00:00 | 4.70°C | Norte |4.00 km/h | 91.00% | 1007.60 hPa
  • 23-02-2018 20:00:00 | 6.00°C | Nordeste |11.00 km/h | 87.00% | 1007.50 hPa
  • 23-02-2018 19:00:00 | 7.10°C | Este |14.00 km/h | 80.00% | 1007.00 hPa
  • 23-02-2018 18:00:00 | 7.90°C | Este |17.00 km/h | 76.00% | 1006.70 hPa
  • 23-02-2018 17:00:00 | 8.90°C | Este |18.00 km/h | 71.00% | 1006.40 hPa
  • 23-02-2018 16:00:00 | 10.00°C | Este |17.00 km/h | 66.00% | 1006.10 hPa
  • 23-02-2018 15:00:00 | 10.60°C | Nordeste |13.00 km/h | 57.00% | 1005.90 hPa
  • 23-02-2018 14:00:00 | 10.80°C | Nordeste |17.00 km/h | 57.00% | 1005.90 hPa
  • 23-02-2018 13:00:00 | 10.90°C | Nordeste |15.00 km/h | 57.00% | 1006.20 hPa
  • 23-02-2018 12:00:00 | 11.40°C | Este |22.00 km/h | 58.00% | 1006.50 hPa
  • 23-02-2018 11:00:00 | 10.60°C | Sur |5.00 km/h | 63.00% | 1006.30 hPa
  • 23-02-2018 10:00:00 | 7.10°C | Calma |0.00 km/h | 84.00% | 1006.20 hPa
  • 23-02-2018 09:00:00 | 2.80°C | Calma |0.00 km/h | 96.00% | 1006.20 hPa
  • 23-02-2018 08:00:00 | 0.80°C | Calma |0.00 km/h | 98.00% | 1005.70 hPa
    • Datos gráficos mensuales de Palma de Mallorca Aeropuerto: